Time;durP1;ratioP1;P1;durP2;ratioP2;P2;SDS_P1;SDS_P2;PMS_P1;PMS_P2;Temp;Humidity;BMP_temperature;BMP_pressure;BME280_temperature;BME280_humidity;BME280_pressure;Samples;Min_cycle;Max_cycle;Signal;HPM_P1;HPM_P2
2023/01/30 00:01:28;;;;;;;15.32;8.57;;;;;;;-0.96;100.00;61901.16;4976414;28;20250;-80
2023/01/30 00:03:59;;;;;;;10.52;7.43;;;;;;;-0.99;100.00;61900.06;4977861;28;20212;-81
2023/01/30 00:06:27;;;;;;;12.55;7.65;;;;;;;-1.02;100.00;61894.50;4971629;28;20272;-79
2023/01/30 00:08:54;;;;;;;14.90;7.88;;;;;;;-0.94;100.00;61900.72;4992297;28;20250;-81
2023/01/30 00:11:22;;;;;;;17.23;9.15;;;;;;;-1.10;100.00;61883.81;4978925;28;20240;-82
2023/01/30 00:13:50;;;;;;;18.23;8.43;;;;;;;-1.05;100.00;61891.44;4974361;28;20248;-82
2023/01/30 00:16:18;;;;;;;16.35;8.60;;;;;;;-1.15;100.00;61881.72;4989778;28;20236;-81
2023/01/30 00:18:45;;;;;;;11.73;5.47;;;;;;;-1.37;100.00;61859.19;4992299;28;20204;-77
2023/01/30 00:21:15;;;;;;;17.60;9.20;;;;;;;-1.33;100.00;61863.78;4992767;28;20232;-82
2023/01/30 00:23:43;;;;;;;13.35;7.18;;;;;;;-1.58;100.00;61838.22;4990876;28;20374;-78
2023/01/30 00:26:11;;;;;;;14.18;8.75;;;;;;;-1.52;100.00;61848.84;4986067;28;20227;-81
2023/01/30 00:28:38;;;;;;;17.02;8.57;;;;;;;-1.44;100.00;61854.53;4993244;28;20218;-80
2023/01/30 00:31:05;;;;;;;15.32;9.50;;;;;;;-1.39;100.00;61854.66;4993897;28;20242;-79
2023/01/30 00:33:33;;;;;;;15.25;8.45;;;;;;;-1.60;100.00;61838.16;4991241;28;20248;-81
2023/01/30 00:36:02;;;;;;;15.63;8.93;;;;;;;-1.72;100.00;61825.88;4991505;28;20235;-81
2023/01/30 00:38:30;;;;;;;15.65;9.07;;;;;;;-1.44;100.00;61852.03;4977457;28;20213;-79
2023/01/30 00:40:57;;;;;;;13.15;7.68;;;;;;;-1.44;100.00;61855.03;4971836;28;20261;-78
2023/01/30 00:49:02;;;;;;;18.00;8.88;;;;;;;-1.40;100.00;61856.13;4972839;29;20192;-82
2023/01/30 00:51:31;;;;;;;14.55;8.75;;;;;;;-1.25;100.00;61874.50;4973274;28;20537;-82
2023/01/30 00:53:59;;;;;;;12.80;7.50;;;;;;;-1.28;100.00;61868.91;4989576;28;20231;-78
2023/01/30 00:56:26;;;;;;;14.35;8.65;;;;;;;-1.21;100.00;61878.56;4977921;28;20225;-81
2023/01/30 00:58:54;;;;;;;12.57;8.07;;;;;;;-1.24;100.00;61873.00;4974638;29;20463;-81
2023/01/30 01:01:21;;;;;;;13.27;7.35;;;;;;;-1.25;100.00;61871.47;4987585;28;20224;-81
2023/01/30 01:03:49;;;;;;;11.15;7.60;;;;;;;-1.27;100.00;61864.94;4990818;28;20236;-81
2023/01/30 01:06:16;;;;;;;16.65;8.93;;;;;;;-1.17;100.00;61879.16;4989490;28;20235;-80
2023/01/30 01:08:43;;;;;;;15.32;8.40;;;;;;;-1.31;100.00;61865.84;4990566;28;20295;-80
2023/01/30 01:11:22;;;;;;;12.65;6.55;;;;;;;-1.29;100.00;61867.38;4991383;28;20295;-77
2023/01/30 01:13:51;;;;;;;15.52;10.30;;;;;;;-1.46;100.00;61852.47;4990436;28;20266;-80
2023/01/30 01:16:18;;;;;;;13.70;8.25;;;;;;;-1.36;100.00;61858.22;4990389;28;20249;-81
2023/01/30 01:18:45;;;;;;;15.18;8.38;;;;;;;-1.55;100.00;61843.25;4986938;28;20208;-78
2023/01/30 01:21:13;;;;;;;15.63;8.93;;;;;;;-1.82;100.00;61813.66;4988354;28;20232;-76
2023/01/30 01:23:40;;;;;;;16.83;8.80;;;;;;;-1.89;100.00;61801.53;4989106;28;20529;-77
2023/01/30 01:26:07;;;;;;;16.45;8.98;;;;;;;-1.86;100.00;61806.56;4992414;28;20375;-81
2023/01/30 01:28:35;;;;;;;13.40;8.18;;;;;;;-1.90;100.00;61807.47;4979030;28;20242;-78
2023/01/30 01:31:08;;;;;;;17.67;9.32;;;;;;;-1.87;100.00;61808.03;4989499;28;20200;-80
2023/01/30 01:33:34;;;;;;;17.70;6.95;;;;;;;-2.00;100.00;61794.75;4986607;28;20259;-76
2023/01/30 01:36:01;;;;;;;7.05;3.05;;;;;;;-2.18;100.00;61779.34;4990074;28;20216;-75
2023/01/30 01:38:29;;;;;;;7.63;5.72;;;;;;;-2.12;100.00;61780.00;4988274;28;20226;-76
2023/01/30 01:41:00;;;;;;;15.98;8.63;;;;;;;-2.17;100.00;61780.38;4988064;28;20212;-77
2023/01/30 01:43:30;;;;;;;12.95;8.70;;;;;;;-2.15;100.00;61779.41;4986470;28;20227;-80
2023/01/30 01:46:02;;;;;;;19.10;8.60;;;;;;;-2.10;100.00;61782.53;4981218;28;20221;-79
2023/01/30 01:48:34;;;;;;;12.70;7.32;;;;;;;-2.07;100.00;61780.63;4983419;28;20240;-76
2023/01/30 01:51:04;;;;;;;14.60;8.25;;;;;;;-1.92;100.00;61803.44;4984346;28;20207;-80
2023/01/30 01:53:34;;;;;;;15.52;9.07;;;;;;;-1.89;100.00;61809.00;4990209;28;20252;-79
2023/01/30 01:56:03;;;;;;;19.58;8.93;;;;;;;-1.84;100.00;61806.63;4986696;28;20236;-80
2023/01/30 01:58:37;;;;;;;16.10;8.68;;;;;;;-1.92;100.00;61805.41;4989400;28;20399;-79
2023/01/30 02:01:06;;;;;;;14.10;6.35;;;;;;;-1.97;100.00;61793.34;4989150;28;20299;-81
2023/01/30 02:03:37;;;;;;;9.13;6.18;;;;;;;-2.06;100.00;61791.09;4982893;28;20204;-78
2023/01/30 02:06:05;;;;;;;9.50;5.75;;;;;;;-2.11;100.00;61781.53;4984294;28;20525;-78
2023/01/30 02:08:37;;;;;;;12.20;7.43;;;;;;;-2.04;100.00;61793.66;4990043;28;20219;-79
2023/01/30 02:11:10;;;;;;;7.82;5.57;;;;;;;-1.92;100.00;61800.44;4987192;28;20224;-81
2023/01/30 02:13:37;;;;;;;12.77;7.82;;;;;;;-1.99;100.00;61793.28;4980193;28;20219;-80
2023/01/30 02:16:08;;;;;;;11.43;7.30;;;;;;;-1.85;100.00;61810.09;4984119;28;20306;-78
2023/01/30 02:18:38;;;;;;;6.53;4.07;;;;;;;-1.90;100.00;61805.50;4985932;28;20215;-78
2023/01/30 02:21:43;;;;;;;15.38;8.10;;;;;;;-2.04;100.00;61791.19;4989807;28;20219;-77
2023/01/30 02:24:27;;;;;;;9.23;6.50;;;;;;;-2.02;100.00;61795.19;4986558;28;20235;-79
2023/01/30 02:27:18;;;;;;;12.23;6.10;;;;;;;-2.03;100.00;61791.66;4985926;28;20234;-77
2023/01/30 02:30:09;;;;;;;10.75;5.90;;;;;;;-2.11;100.00;61784.00;4990327;28;20220;-80
2023/01/30 02:32:44;;;;;;;10.60;5.82;;;;;;;-2.06;100.00;61791.63;4988497;28;20232;-80
2023/01/30 02:35:23;;;;;;;10.43;6.25;;;;;;;-2.25;100.00;61769.69;4989162;28;20303;-81
2023/01/30 02:38:04;;;;;;;9.20;4.78;;;;;;;-2.19;100.00;61777.81;4988512;28;20228;-77
2023/01/30 02:40:41;;;;;;;12.23;6.93;;;;;;;-2.03;100.00;61792.19;4989206;28;20251;-79
2023/01/30 02:43:20;;;;;;;7.10;4.90;;;;;;;-1.93;100.00;61799.91;4989486;28;20192;-80
2023/01/30 02:45:54;;;;;;;12.60;6.70;;;;;;;-1.84;100.00;61816.59;4991112;28;20243;-79
2023/01/30 02:48:27;;;;;;;13.30;6.03;;;;;;;-1.84;100.00;61808.59;4989375;28;20212;-78
2023/01/30 02:50:59;;;;;;;8.93;5.63;;;;;;;-2.10;100.00;61790.00;4988970;28;20214;-78
2023/01/30 02:53:29;;;;;;;8.43;5.40;;;;;;;-2.01;100.00;61799.22;4987108;28;20208;-80
2023/01/30 02:55:57;;;;;;;7.30;5.10;;;;;;;-2.04;100.00;61790.66;4967667;28;20248;-81
2023/01/30 02:58:28;;;;;;;9.30;5.80;;;;;;;-2.08;100.00;61789.56;4969965;28;20517;-82
2023/01/30 03:01:19;;;;;;;8.52;5.88;;;;;;;-2.00;100.00;61797.75;4992065;28;20204;-80
2023/01/30 03:04:03;;;;;;;10.50;5.60;;;;;;;-1.81;100.00;61816.69;4981825;28;20235;-79
2023/01/30 03:06:55;;;;;;;12.88;6.50;;;;;;;-2.04;100.00;61796.16;4987641;28;20228;-80
2023/01/30 03:09:30;;;;;;;12.45;6.70;;;;;;;-2.08;100.00;61786.56;4989086;28;20521;-79
2023/01/30 03:12:03;;;;;;;10.57;5.63;;;;;;;-2.03;100.00;61789.19;4984531;28;20237;-79
2023/01/30 03:14:36;;;;;;;11.75;5.30;;;;;;;-2.04;100.00;61790.66;4991357;28;20563;-80
2023/01/30 03:17:06;;;;;;;5.05;3.95;;;;;;;-2.47;100.00;61749.69;4985149;28;20220;-78
2023/01/30 03:19:35;;;;;;;6.07;4.28;;;;;;;-2.16;100.00;61783.88;4988794;28;20208;-80
2023/01/30 03:22:02;;;;;;;6.47;5.05;;;;;;;-2.11;100.00;61783.50;4988121;28;20232;-78
2023/01/30 03:24:29;;;;;;;8.23;5.88;;;;;;;-2.22;100.00;61775.25;4988491;28;20222;-79
2023/01/30 03:27:01;;;;;;;11.40;6.25;;;;;;;-2.22;100.00;61775.25;4988403;28;20228;-80
2023/01/30 03:29:29;;;;;;;10.13;5.75;;;;;;;-2.07;100.00;61788.09;4989526;28;20308;-81
2023/01/30 03:31:55;;;;;;;7.50;4.72;;;;;;;-2.19;100.00;61775.31;4984718;28;20581;-77
2023/01/30 03:34:23;;;;;;;10.52;6.10;;;;;;;-2.07;100.00;61790.09;4989150;28;20211;-78
2023/01/30 03:36:51;;;;;;;8.40;5.85;;;;;;;-1.97;100.00;61800.31;4969408;29;20461;-80
2023/01/30 03:39:19;;;;;;;10.35;6.78;;;;;;;-1.99;100.00;61796.28;4977492;28;20208;-80
2023/01/30 03:41:46;;;;;;;12.15;6.53;;;;;;;-1.90;100.00;61807.47;4993543;28;20226;-78
2023/01/30 03:44:13;;;;;;;9.55;5.80;;;;;;;-1.99;100.00;61795.78;4991346;28;20208;-79
2023/01/30 03:46:40;;;;;;;10.40;4.93;;;;;;;-1.85;100.00;61810.09;4991811;28;20246;-80
2023/01/30 03:49:07;;;;;;;11.10;6.80;;;;;;;-1.73;100.00;61822.38;4992953;28;20215;-78
2023/01/30 03:51:34;;;;;;;10.52;5.82;;;;;;;-1.84;100.00;61811.09;4991244;28;20422;-79
2023/01/30 03:54:03;;;;;;;6.45;4.75;;;;;;;-1.78;100.00;61817.25;4990188;28;20224;-79
2023/01/30 03:56:31;;;;;;;10.45;6.88;;;;;;;-1.76;100.00;61822.28;4996056;28;20243;-80
2023/01/30 03:58:57;;;;;;;13.90;6.95;;;;;;;-1.85;100.00;61810.59;4991856;28;20220;-79
2023/01/30 04:01:25;;;;;;;9.63;5.80;;;;;;;-1.92;100.00;61803.44;4992676;28;20223;-80
2023/01/30 04:03:52;;;;;;;10.18;6.78;;;;;;;-1.90;100.00;61804.97;4993785;28;20212;-81
2023/01/30 04:06:19;;;;;;;10.77;6.65;;;;;;;-1.92;100.00;61805.94;4986769;28;20236;-80
2023/01/30 04:08:46;;;;;;;11.52;6.88;;;;;;;-2.06;100.00;61781.13;4974849;28;20276;-78
2023/01/30 04:11:15;;;;;;;12.35;6.78;;;;;;;-1.93;100.00;61801.91;4980648;28;20232;-81
2023/01/30 04:13:42;;;;;;;8.40;6.15;;;;;;;-1.94;100.00;61803.38;4990876;28;20218;-78
2023/01/30 04:16:16;;;;;;;10.35;5.90;;;;;;;-2.08;100.00;61786.56;4975361;28;20565;-78
2023/01/30 04:18:43;;;;;;;11.50;6.70;;;;;;;-2.18;100.00;61776.34;4969866;28;20204;-80
2023/01/30 04:21:10;;;;;;;10.52;4.78;;;;;;;-2.14;100.00;61780.94;4983660;28;20238;-76
2023/01/30 04:23:37;;;;;;;8.73;5.20;;;;;;;-2.21;100.00;61773.28;4991249;28;20280;-76
2023/01/30 04:26:05;;;;;;;10.95;6.22;;;;;;;-2.24;100.00;61770.72;4988295;28;20230;-77
2023/01/30 04:28:34;;;;;;;9.13;5.88;;;;;;;-2.34;100.00;61758.00;4991123;28;20208;-80
2023/01/30 04:31:02;;;;;;;13.13;6.68;;;;;;;-2.14;100.00;61780.44;4977440;28;20205;-79
2023/01/30 04:33:29;;;;;;;11.85;5.38;;;;;;;-2.22;100.00;61775.25;4978032;28;20200;-78
2023/01/30 04:35:59;;;;;;;12.07;6.35;;;;;;;-2.05;100.00;61792.63;4974764;28;20231;-79
2023/01/30 04:38:27;;;;;;;11.93;6.18;;;;;;;-2.16;100.00;61775.91;4979017;28;20213;-76
2023/01/30 04:40:56;;;;;;;12.32;6.85;;;;;;;-2.10;100.00;61787.53;4990795;28;20256;-80
2023/01/30 04:43:24;;;;;;;8.77;5.18;;;;;;;-2.10;100.00;61782.03;4988808;28;20212;-76
2023/01/30 04:45:53;;;;;;;10.98;7.03;;;;;;;-2.30;100.00;61767.06;4975710;28;20208;-76
2023/01/30 04:48:22;;;;;;;11.45;6.35;;;;;;;-2.40;100.00;61754.88;4975156;28;20201;-81
2023/01/30 04:50:51;;;;;;;12.10;6.63;;;;;;;-2.19;100.00;61778.31;4978979;28;20216;-76
2023/01/30 04:53:20;;;;;;;15.90;7.85;;;;;;;-2.26;100.00;61766.16;4985734;28;20227;-80
2023/01/30 04:55:47;;;;;;;9.50;6.22;;;;;;;-2.27;100.00;61764.63;4992334;28;20250;-76
2023/01/30 04:58:14;;;;;;;17.88;8.30;;;;;;;-2.35;100.00;61759.47;4985538;28;20251;-79
2023/01/30 05:00:42;;;;;;;14.98;8.88;;;;;;;-2.34;100.00;61760.50;4980719;28;20200;-81
2023/01/30 05:03:10;;;;;;;4.95;4.43;;;;;;;-2.29;100.00;61760.63;4989147;28;20259;-77
2023/01/30 05:05:37;;;;;;;7.32;4.18;;;;;;;-2.27;100.00;61765.16;4991913;28;20204;-75
2023/01/30 05:08:05;;;;;;;14.15;8.30;;;;;;;-2.26;100.00;61768.16;4989367;28;20224;-80
2023/01/30 05:10:33;;;;;;;13.75;8.48;;;;;;;-2.24;100.00;61772.72;4987297;28;20197;-80
2023/01/30 05:13:02;;;;;;;17.02;9.55;;;;;;;-1.99;100.00;61793.78;4975884;28;20225;-81
2023/01/30 05:15:30;;;;;;;15.15;8.95;;;;;;;-1.95;100.00;61802.34;4972395;29;20236;-80
2023/01/30 05:17:57;;;;;;;14.27;9.02;;;;;;;-2.11;100.00;61784.00;4989046;28;20471;-79
2023/01/30 05:20:25;;;;;;;16.80;7.97;;;;;;;-2.11;100.00;61784.00;4983601;28;20290;-77
2023/01/30 05:22:53;;;;;;;11.52;7.50;;;;;;;-2.17;100.00;61780.38;4989790;28;20253;-78
2023/01/30 05:25:20;;;;;;;14.52;7.93;;;;;;;-2.27;100.00;61767.66;4976953;28;20228;-78
2023/01/30 05:27:47;;;;;;;15.38;4.38;;;;;;;-2.29;100.00;61770.59;4988129;28;20228;-78
2023/01/30 05:30:14;;;;;;;19.20;9.52;;;;;;;-2.27;100.00;61774.59;4971546;28;20232;-79
2023/01/30 05:32:41;;;;;;;13.00;6.70;;;;;;;-2.33;100.00;61764.03;4986891;28;20223;-79
2023/01/30 05:35:09;;;;;;;10.93;6.53;;;;;;;-2.29;100.00;61765.59;4990189;28;20533;-79
2023/01/30 05:37:37;;;;;;;21.52;10.63;;;;;;;-2.37;100.00;61754.94;4987823;28;20242;-79
2023/01/30 05:40:06;;;;;;;13.32;7.45;;;;;;;-2.45;100.00;61746.75;4989239;28;20223;-78
2023/01/30 05:42:35;;;;;;;21.48;10.35;;;;;;;-2.39;100.00;61755.91;4988691;28;20231;-80
2023/01/30 05:45:02;;;;;;;18.27;9.77;;;;;;;-2.46;100.00;61751.22;4979445;28;20204;-77
2023/01/30 05:47:29;;;;;;;12.02;7.45;;;;;;;-2.37;100.00;61760.44;4987100;28;20296;-77
2023/01/30 05:49:57;;;;;;;11.23;6.30;;;;;;;-2.41;100.00;61753.34;4990184;28;20239;-76
2023/01/30 05:52:24;;;;;;;19.60;7.57;;;;;;;-2.42;100.00;61752.81;4987586;28;20225;-79
2023/01/30 05:54:53;;;;;;;14.55;8.25;;;;;;;-2.40;100.00;61751.88;4989892;28;20208;-77
2023/01/30 05:57:20;;;;;;;12.18;6.25;;;;;;;-2.44;100.00;61752.75;4972710;28;20228;-77
2023/01/30 05:59:48;;;;;;;23.23;11.18;;;;;;;-2.50;100.00;61739.16;4972357;28;20216;-79
2023/01/30 06:02:15;;;;;;;31.65;11.98;;;;;;;-2.37;100.00;61757.44;4988787;28;20231;-81
2023/01/30 06:04:43;;;;;;;21.65;11.77;;;;;;;-2.35;100.00;61759.47;4984208;28;20200;-81
2023/01/30 06:07:10;;;;;;;13.40;7.65;;;;;;;-2.19;100.00;61777.81;4992038;28;20532;-77
2023/01/30 06:09:37;;;;;;;17.85;9.30;;;;;;;-2.40;100.00;61754.88;4989391;28;20231;-77
2023/01/30 06:12:07;;;;;;;23.02;11.55;;;;;;;-2.49;100.00;61743.19;4984789;28;20244;-78
2023/01/30 06:14:34;;;;;;;23.95;10.35;;;;;;;-2.48;100.00;61746.69;4987386;28;20196;-80
2023/01/30 06:17:01;;;;;;;16.52;9.27;;;;;;;-2.37;100.00;61760.44;4987968;28;20278;-78
2023/01/30 06:19:28;;;;;;;19.02;10.82;;;;;;;-2.35;100.00;61759.97;4984058;28;20255;-81
2023/01/30 06:21:55;;;;;;;23.00;10.93;;;;;;;-2.45;100.00;61749.75;4988081;28;20457;-81
2023/01/30 06:24:22;;;;;;;24.83;12.52;;;;;;;-2.31;100.00;61760.56;4990328;28;20200;-81
2023/01/30 06:26:49;;;;;;;20.40;10.13;;;;;;;-2.28;100.00;61766.13;4989413;28;20228;-79
2023/01/30 06:29:18;;;;;;;21.98;10.93;;;;;;;-2.26;100.00;61770.66;4988595;28;20453;-77
2023/01/30 06:31:45;;;;;;;24.00;12.52;;;;;;;-2.40;100.00;61754.88;4971379;28;20231;-81
2023/01/30 06:34:12;;;;;;;11.45;6.18;;;;;;;-2.29;100.00;61762.59;4969150;28;20225;-77
2023/01/30 06:36:39;;;;;;;22.38;11.95;;;;;;;-2.40;100.00;61754.88;4978517;28;20240;-76
2023/01/30 06:39:06;;;;;;;19.27;10.10;;;;;;;-2.33;100.00;61763.50;4989465;28;20204;-78
2023/01/30 06:41:33;;;;;;;23.10;12.60;;;;;;;-2.40;100.00;61752.38;4980967;28;20237;-82
2023/01/30 06:44:00;;;;;;;19.98;9.77;;;;;;;-2.44;100.00;61750.78;4971954;28;20377;-77
2023/01/30 06:46:28;;;;;;;23.70;10.52;;;;;;;-2.45;100.00;61749.25;4975927;28;20232;-77
2023/01/30 06:48:55;;;;;;;26.75;12.15;;;;;;;-2.46;100.00;61751.22;4975166;28;20225;-75
2023/01/30 06:51:22;;;;;;;17.20;9.43;;;;;;;-2.55;100.00;61739.03;4983484;28;20243;-75
2023/01/30 06:53:49;;;;;;;21.33;10.32;;;;;;;-2.53;100.00;61739.09;4971506;28;20260;-77
2023/01/30 06:56:16;;;;;;;13.90;7.22;;;;;;;-2.48;100.00;61746.69;4973890;28;20424;-79
2023/01/30 06:58:44;;;;;;;20.88;12.10;;;;;;;-2.50;100.00;61744.13;4983625;28;20219;-81
2023/01/30 07:01:11;;;;;;;19.27;9.77;;;;;;;-2.53;100.00;61746.06;4981174;28;20224;-77
2023/01/30 07:03:39;;;;;;;16.38;8.40;;;;;;;-2.47;100.00;61747.72;4985843;28;20276;-78
2023/01/30 07:06:06;;;;;;;27.52;13.23;;;;;;;-2.58;100.00;61736.47;4973219;28;20218;-78
2023/01/30 07:08:33;;;;;;;18.38;9.27;;;;;;;-2.46;100.00;61748.22;4974414;28;20558;-77
2023/01/30 07:11:00;;;;;;;22.30;11.55;;;;;;;-2.46;100.00;61748.22;4972471;28;20204;-78
2023/01/30 07:13:27;;;;;;;27.50;12.10;;;;;;;-2.42;100.00;61749.81;4975662;28;20208;-74
2023/01/30 07:15:54;;;;;;;19.33;10.68;;;;;;;-2.41;100.00;61753.84;4973043;28;20235;-77
2023/01/30 07:18:21;;;;;;;29.20;12.02;;;;;;;-2.47;100.00;61747.72;4973175;28;20482;-75
2023/01/30 07:20:50;;;;;;;15.25;9.23;;;;;;;-2.36;100.00;61755.94;4976608;28;20211;-77
2023/01/30 07:23:17;;;;;;;28.10;12.23;;;;;;;-2.37;100.00;61757.94;4973156;28;20255;-77
2023/01/30 07:25:44;;;;;;;19.13;8.60;;;;;;;-2.43;100.00;61749.31;4974411;28;20258;-76
2023/01/30 07:28:11;;;;;;;24.65;13.55;;;;;;;-2.26;100.00;61773.16;4978127;28;20454;-78
2023/01/30 07:30:38;;;;;;;27.05;14.05;;;;;;;-2.28;100.00;61764.16;4973696;28;20197;-79
2023/01/30 07:33:07;;;;;;;30.20;14.13;;;;;;;-2.20;100.00;61771.78;4975076;28;20327;-80
2023/01/30 07:35:37;;;;;;;30.83;15.00;;;;;;;-2.00;100.00;61792.75;4990155;28;20211;-82
2023/01/30 07:38:05;;;;;;;27.83;13.23;;;;;;;-2.25;100.00;61767.19;4988754;28;20235;-77
2023/01/30 07:40:32;;;;;;;26.88;11.43;;;;;;;-2.10;100.00;61784.50;4976441;28;20251;-76
2023/01/30 07:43:01;;;;;;;19.83;8.52;;;;;;;-2.24;100.00;61765.22;4972263;28;20267;-81
2023/01/30 07:45:32;;;;;;;16.67;8.77;;;;;;;-2.31;100.00;61765.53;4975108;28;20259;-77
2023/01/30 07:47:59;;;;;;;27.92;11.63;;;;;;;-2.29;100.00;61762.59;4977231;28;20255;-80
2023/01/30 07:50:26;;;;;;;22.98;11.98;;;;;;;-2.25;100.00;61769.19;4976643;28;20205;-78
2023/01/30 07:52:53;;;;;;;20.38;8.88;;;;;;;-2.12;100.00;61782.47;4976976;28;20711;-77
2023/01/30 07:55:21;;;;;;;13.48;7.47;;;;;;;-2.26;100.00;61768.16;4979013;28;20352;-79
2023/01/30 07:57:49;;;;;;;24.90;10.20;;;;;;;-2.24;100.00;61770.22;4971521;28;20241;-77
2023/01/30 08:00:18;;;;;;;27.48;12.73;;;;;;;-2.28;100.00;61763.63;4971969;28;20450;-81
2023/01/30 08:02:44;;;;;;;17.30;10.63;;;;;;;-2.26;100.00;61771.16;4985175;28;20220;-76
2023/01/30 08:05:12;;;;;;;19.70;9.48;;;;;;;-2.39;100.00;61755.38;4983969;28;20213;-78
2023/01/30 08:07:38;;;;;;;20.42;8.98;;;;;;;-2.28;100.00;61768.63;4981483;28;20418;-78
2023/01/30 08:10:06;;;;;;;24.05;12.23;;;;;;;-2.19;100.00;61775.31;4987185;28;20243;-75
2023/01/30 08:12:34;;;;;;;13.40;8.48;;;;;;;-2.21;100.00;61773.28;4986571;28;20232;-76
2023/01/30 08:15:02;;;;;;;23.65;10.48;;;;;;;-2.20;100.00;61774.81;4984213;28;20259;-79
2023/01/30 08:17:29;;;;;;;18.98;10.05;;;;;;;-2.05;100.00;61789.66;4986838;28;20301;-81
2023/01/30 08:19:56;;;;;;;19.83;10.00;;;;;;;-2.05;100.00;61784.66;4985033;28;20211;-76
2023/01/30 08:22:23;;;;;;;15.30;8.68;;;;;;;-2.22;100.00;61775.25;4986447;28;20220;-76
2023/01/30 08:24:50;;;;;;;19.92;7.10;;;;;;;-2.18;100.00;61776.34;4976747;28;20205;-76
2023/01/30 08:27:18;;;;;;;17.85;9.65;;;;;;;-2.18;100.00;61774.38;4969496;28;20271;-80
2023/01/30 08:29:46;;;;;;;16.67;9.40;;;;;;;-2.07;100.00;61783.09;4975483;28;20204;-79
2023/01/30 08:32:13;;;;;;;18.88;7.78;;;;;;;-2.05;100.00;61792.63;4990071;28;20231;-77
2023/01/30 08:34:40;;;;;;;13.63;7.95;;;;;;;-1.98;100.00;61794.81;4983546;28;20211;-78
2023/01/30 08:37:07;;;;;;;12.95;6.18;;;;;;;-1.83;100.00;61812.63;4991801;28;20250;-80
2023/01/30 08:39:34;;;;;;;19.63;9.70;;;;;;;-1.60;100.00;61833.69;4991849;28;20223;-79
2023/01/30 08:42:02;;;;;;;20.08;9.52;;;;;;;-1.48;100.00;61848.44;4989321;28;20223;-80
2023/01/30 08:44:28;;;;;;;13.48;8.52;;;;;;;-1.47;100.00;61846.47;4990209;28;20204;-81
2023/01/30 08:46:57;;;;;;;8.05;5.45;;;;;;;-1.42;100.00;61854.09;4990431;28;20228;-77
2023/01/30 08:49:24;;;;;;;17.13;9.65;;;;;;;-1.45;100.00;61856.50;4992224;28;20238;-79
2023/01/30 08:51:51;;;;;;;14.35;8.18;;;;;;;-1.39;100.00;61857.16;4993167;28;20283;-78
2023/01/30 08:54:18;;;;;;;17.38;6.28;;;;;;;-1.06;100.00;61893.41;4992137;28;20214;-79
2023/01/30 08:56:45;;;;;;;14.63;8.05;;;;;;;-1.40;100.00;61853.63;4988286;28;20236;-78
2023/01/30 08:59:12;;;;;;;16.95;8.60;;;;;;;-1.34;100.00;61859.75;4971600;28;20205;-76
2023/01/30 09:01:40;;;;;;;16.50;9.02;;;;;;;-1.17;100.00;61885.16;4974042;28;20246;-80
2023/01/30 09:04:09;;;;;;;12.95;8.30;;;;;;;-1.06;100.00;61888.44;4990343;28;20214;-80
2023/01/30 09:06:36;;;;;;;21.77;9.52;;;;;;;-1.04;100.00;61894.94;4989557;28;20271;-79
2023/01/30 09:09:03;;;;;;;12.32;7.50;;;;;;;-0.85;100.00;61912.44;4985198;28;20212;-77
2023/01/30 09:11:30;;;;;;;17.83;8.93;;;;;;;-1.12;100.00;61884.28;4989429;28;20220;-81
2023/01/30 09:13:58;;;;;;;16.50;9.07;;;;;;;-0.87;100.00;61905.38;4977305;28;20204;-79
2023/01/30 09:16:25;;;;;;;15.18;8.52;;;;;;;-0.59;100.00;61941.56;4973560;28;20249;-80
2023/01/30 09:18:52;;;;;;;12.68;8.10;;;;;;;-0.69;99.83;61920.81;4991680;28;20212;-79
2023/01/30 09:21:20;;;;;;;15.30;7.82;;;;;;;-0.40;97.42;61953.50;4991931;28;20247;-80
2023/01/30 09:23:47;;;;;;;10.10;6.57;;;;;;;-0.58;96.48;61942.56;4979593;28;20272;-74
2023/01/30 09:26:14;;;;;;;14.13;7.13;;;;;;;-0.51;95.49;61949.22;4984284;28;20264;-80
2023/01/30 09:28:41;;;;;;;16.48;7.43;;;;;;;-0.37;96.25;61958.56;4987057;28;20208;-77
2023/01/30 09:31:08;;;;;;;13.73;7.80;;;;;;;-0.40;99.06;61953.00;4970539;28;20276;-82
2023/01/30 09:33:35;;;;;;;14.00;8.02;;;;;;;-0.64;99.82;61931.41;4970919;28;20271;-78
2023/01/30 09:36:02;;;;;;;12.63;7.70;;;;;;;-0.80;100.00;61920.03;4982854;28;20232;-78
2023/01/30 09:38:30;;;;;;;13.75;7.55;;;;;;;-0.92;100.00;61905.25;4984710;28;20271;-80
2023/01/30 09:41:24;;;;;;;13.63;7.93;;;;;;;-0.87;100.00;61907.34;4974079;28;20211;-81
2023/01/30 09:44:11;;;;;;;13.68;8.38;;;;;;;-0.34;99.59;61961.63;4974426;28;20211;-81
2023/01/30 09:46:46;;;;;;;4.55;3.45;;;;;;;-0.85;97.13;61912.44;4985614;28;20228;-81
2023/01/30 09:49:26;;;;;;;16.15;7.95;;;;;;;-0.91;100.00;61905.75;4988730;28;20204;-77
2023/01/30 09:52:04;;;;;;;18.63;9.30;;;;;;;-0.83;100.00;61913.97;4989554;28;20223;-79
2023/01/30 09:54:36;;;;;;;15.70;9.15;;;;;;;-0.68;100.00;61934.31;4974091;28;20270;-78
2023/01/30 09:57:12;;;;;;;16.48;8.55;;;;;;;-0.58;100.00;61939.56;4979647;28;20232;-80
2023/01/30 09:59:50;;;;;;;10.68;6.90;;;;;;;-0.93;100.00;61904.22;4980072;28;20228;-77
2023/01/30 10:02:40;;;;;;;6.88;5.28;;;;;;;-0.79;97.75;61923.03;4971324;28;20441;-76
2023/01/30 10:05:07;;;;;;;7.20;4.78;;;;;;;-0.77;100.00;61922.59;4984054;28;20209;-78
2023/01/30 10:07:56;;;;;;;13.35;7.75;;;;;;;-0.86;100.00;61908.41;4967879;28;20231;-79
2023/01/30 10:10:41;;;;;;;11.90;6.85;;;;;;;-0.99;100.00;61897.56;4974510;28;20228;-77
2023/01/30 10:13:36;;;;;;;10.57;7.72;;;;;;;-1.06;100.00;61888.44;4980012;28;20244;-79
2023/01/30 10:16:13;;;;;;;10.75;6.55;;;;;;;-1.20;100.00;61874.63;4978115;28;20209;-77
2023/01/30 10:19:13;;;;;;;10.05;6.43;;;;;;;-1.17;100.00;61886.66;4972839;28;20559;-76
2023/01/30 10:21:47;;;;;;;9.68;6.85;;;;;;;-1.40;100.00;61856.63;4974731;28;20232;-78
2023/01/30 10:24:38;;;;;;;14.70;7.95;;;;;;;-1.29;100.00;61874.88;4978292;28;20200;-81
2023/01/30 10:27:13;;;;;;;16.88;9.45;;;;;;;-0.88;100.00;61908.84;4976108;28;20224;-79
2023/01/30 10:29:44;;;;;;;15.20;8.82;;;;;;;-1.19;100.00;61878.13;4973438;28;20218;-76
2023/01/30 10:32:15;;;;;;;16.00;6.85;;;;;;;-1.13;100.00;61881.25;4976200;28;20228;-77
2023/01/30 10:34:47;;;;;;;17.42;9.80;;;;;;;-1.19;100.00;61878.13;4978368;28;20382;-77
2023/01/30 10:37:24;;;;;;;8.30;7.50;;;;;;;-1.17;100.00;61877.69;4975329;28;20469;-81
2023/01/30 10:40:00;;;;;;;7.40;5.50;;;;;;;-1.26;100.00;61873.44;4977058;28;20522;-77
2023/01/30 10:42:31;;;;;;;9.75;6.38;;;;;;;-1.57;100.00;61839.22;4977540;28;20226;-76
2023/01/30 10:45:06;;;;;;;19.10;9.10;;;;;;;-1.42;100.00;61859.59;4979178;28;20184;-77
2023/01/30 10:47:44;;;;;;;8.88;6.47;;;;;;;-1.46;100.00;61849.97;4977330;28;20278;-78
2023/01/30 10:50:17;;;;;;;22.40;8.95;;;;;;;-1.17;100.00;61881.66;4977240;28;20445;-81
2023/01/30 10:52:53;;;;;;;18.42;8.55;;;;;;;-0.96;100.00;61901.16;4980352;28;20219;-77
2023/01/30 10:55:29;;;;;;;8.35;5.28;;;;;;;-1.41;100.00;61855.63;4975945;28;20568;-78
2023/01/30 10:58:03;;;;;;;10.73;6.63;;;;;;;-1.55;100.00;61838.78;4968795;29;20283;-77
2023/01/30 11:00:38;;;;;;;14.43;8.32;;;;;;;-1.52;100.00;61844.34;4971536;28;20200;-80
2023/01/30 11:03:16;;;;;;;15.50;8.88;;;;;;;-1.55;100.00;61838.28;4979852;28;20602;-81
2023/01/30 11:05:48;;;;;;;11.73;6.47;;;;;;;-1.56;100.00;61837.78;4979863;28;20224;-79
2023/01/30 11:08:23;;;;;;;31.65;10.23;;;;;;;-1.15;100.00;61889.19;4979507;28;20208;-82
2023/01/30 11:10:51;;;;;;;17.23;8.80;;;;;;;-1.04;100.00;61892.97;4983191;28;20210;-80
2023/01/30 11:13:23;;;;;;;20.20;10.02;;;;;;;-0.77;100.00;61923.13;4993166;28;20258;-80
2023/01/30 11:15:54;;;;;;;12.35;7.35;;;;;;;-0.59;100.00;61943.53;4980598;28;20230;-81
2023/01/30 11:18:22;;;;;;;14.73;8.65;;;;;;;-0.78;100.00;61919.06;4984176;28;20236;-78
2023/01/30 11:21:04;;;;;;;14.60;7.78;;;;;;;-1.01;100.00;61898.53;4968521;28;20211;-79
2023/01/30 11:23:39;;;;;;;12.70;8.00;;;;;;;-0.98;100.00;61898.59;4971000;28;20284;-83
2023/01/30 11:26:06;;;;;;;10.23;6.25;;;;;;;-0.97;100.00;61899.63;4985581;28;20319;-77
2023/01/30 11:28:41;;;;;;;17.63;9.27;;;;;;;-0.87;100.00;61910.38;4974574;28;20211;-78
2023/01/30 11:31:18;;;;;;;17.75;9.75;;;;;;;-0.82;100.00;61915.50;4988516;28;20222;-81
2023/01/30 11:33:45;;;;;;;19.00;10.70;;;;;;;-0.81;100.00;61916.00;4988260;28;20219;-80
2023/01/30 11:36:26;;;;;;;17.02;9.77;;;;;;;-0.71;100.00;61921.78;4990223;28;20291;-78